Time;durP1;ratioP1;P1;durP2;ratioP2;P2;SDS_P1;SDS_P2;PMS_P1;PMS_P2;Temp;Humidity;BMP_temperature;BMP_pressure;BME280_temperature;BME280_humidity;BME280_pressure;Samples;Min_cycle;Max_cycle;Signal;HPM_P1;HPM_P2
2022/10/04 00:01:42;;;;;;;16.35;8.30;;;;;;;12.97;82.46;102123.47;3574858;40;20084;-63
2022/10/04 00:04:14;;;;;;;12.82;7.85;;;;;;;13.01;82.62;102125.06;3575270;40;20053;-63
2022/10/04 00:06:58;;;;;;;11.07;7.32;;;;;;;12.98;82.15;102133.34;3581038;40;20328;-64
2022/10/04 00:09:36;;;;;;;15.93;8.57;;;;;;;13.03;82.20;102139.34;3579868;40;20044;-64
2022/10/04 00:12:05;;;;;;;12.63;7.88;;;;;;;13.02;81.96;102127.69;3578658;40;20052;-63
2022/10/04 00:14:43;;;;;;;16.10;8.32;;;;;;;13.01;81.98;102127.78;3577590;40;20053;-64
2022/10/04 00:17:19;;;;;;;16.33;8.85;;;;;;;12.96;82.52;102119.03;3578442;40;20067;-63
2022/10/04 00:19:49;;;;;;;13.43;8.23;;;;;;;12.98;82.39;102119.84;3577513;40;20121;-63
2022/10/04 00:22:18;;;;;;;16.67;8.93;;;;;;;12.95;82.46;102122.69;3574449;40;20049;-64
2022/10/04 00:25:09;;;;;;;14.35;7.95;;;;;;;12.89;82.83;102120.31;3577217;40;20457;-64
2022/10/04 00:27:37;;;;;;;14.70;8.50;;;;;;;12.86;82.59;102112.34;3576878;40;20111;-64
2022/10/04 00:30:03;;;;;;;13.98;8.80;;;;;;;12.84;82.82;102109.72;3574562;40;20067;-66
2022/10/04 00:32:40;;;;;;;12.88;8.82;;;;;;;12.83;82.55;102109.81;3576563;40;20049;-64
2022/10/04 00:35:24;;;;;;;13.38;8.45;;;;;;;12.80;82.34;102104.56;3580669;40;20040;-64
2022/10/04 00:38:06;;;;;;;;;;;;;;;12.71;82.70;102095.97;3576806;40;20045;-64
2022/10/04 00:40:53;;;;;;;14.98;9.55;;;;;;;12.69;82.73;102097.91;3582815;40;20018;-64
2022/10/04 00:43:28;;;;;;;13.98;9.35;;;;;;;12.65;82.01;102087.31;3580976;40;20096;-63
2022/10/04 00:46:05;;;;;;;16.20;9.23;;;;;;;12.63;82.45;102097.34;3580385;40;20287;-64
2022/10/04 00:48:48;;;;;;;12.50;8.65;;;;;;;12.59;82.31;102102.03;3581470;40;20058;-63
2022/10/04 00:51:49;;;;;;;13.68;8.77;;;;;;;12.55;82.52;102103.97;3581620;40;20086;-63
2022/10/04 00:54:31;;;;;;;13.35;9.40;;;;;;;12.51;82.91;102102.38;3579372;40;20118;-63
2022/10/04 00:57:10;;;;;;;10.75;9.13;;;;;;;12.50;82.78;102097.94;3576682;40;20410;-64
2022/10/04 00:59:47;;;;;;;14.25;9.13;;;;;;;12.35;82.66;102074.44;3581337;40;20349;-63
2022/10/04 01:02:20;;;;;;;17.15;9.45;;;;;;;12.45;83.06;102088.31;3579742;40;20075;-63
2022/10/04 01:05:09;;;;;;;14.23;9.32;;;;;;;12.39;82.75;102080.53;3584735;39;20049;-63
2022/10/04 01:07:48;;;;;;;16.88;9.32;;;;;;;12.27;82.92;102068.53;3580951;40;20430;-63
2022/10/04 01:10:30;;;;;;;11.23;9.68;;;;;;;12.25;83.45;102070.44;3581922;40;20060;-63
2022/10/04 01:13:13;;;;;;;13.32;9.63;;;;;;;12.21;83.19;102067.03;3586630;40;20295;-63
2022/10/04 01:16:02;;;;;;;14.93;9.27;;;;;;;12.21;83.73;102052.66;3583024;40;20329;-63
2022/10/04 01:18:34;;;;;;;18.42;10.05;;;;;;;11.44;83.54;101924.31;3586793;40;20481;-64
2022/10/04 01:21:15;;;;;;;17.98;9.57;;;;;;;12.23;83.77;102056.16;3580610;40;20161;-63
2022/10/04 01:24:12;;;;;;;13.25;9.38;;;;;;;12.12;83.57;102037.81;3582806;40;20044;-63
2022/10/04 01:26:42;;;;;;;16.13;9.55;;;;;;;12.14;83.26;102035.91;3581163;40;20057;-64
2022/10/04 01:29:24;;;;;;;15.43;9.95;;;;;;;12.17;83.04;102038.44;3579271;40;20100;-63
2022/10/04 01:31:54;;;;;;;15.18;9.73;;;;;;;12.22;83.13;102044.50;3576538;40;20126;-63
2022/10/04 01:34:24;;;;;;;17.30;10.43;;;;;;;12.08;82.56;102026.31;3584868;40;20129;-63
2022/10/04 01:36:56;;;;;;;14.95;9.52;;;;;;;12.13;82.67;102047.66;3582078;40;20108;-63
2022/10/04 01:39:25;;;;;;;12.50;9.48;;;;;;;12.11;82.97;102052.22;3579866;40;20409;-63
2022/10/04 01:42:51;;;;;;;15.23;9.63;;;;;;;12.06;82.45;102043.50;3585095;40;20298;-63
2022/10/04 01:45:34;;;;;;;16.27;9.63;;;;;;;12.02;83.04;102039.19;3576719;40;20056;-63
2022/10/04 01:48:06;;;;;;;17.58;10.20;;;;;;;11.18;82.76;101893.25;3578698;40;20088;-63
2022/10/04 01:50:44;;;;;;;14.70;10.27;;;;;;;11.99;83.34;102029.47;3586780;39;20040;-63
2022/10/04 01:53:22;;;;;;;19.75;9.88;;;;;;;11.98;83.41;102034.91;3584790;40;20103;-64
2022/10/04 01:56:06;;;;;;;14.52;9.02;;;;;;;11.78;83.45;102007.06;3577576;40;20345;-64
2022/10/04 01:58:59;;;;;;;13.15;9.93;;;;;;;11.96;83.33;102037.69;3578597;40;20145;-63
2022/10/04 02:01:41;;;;;;;17.45;9.95;;;;;;;11.98;83.07;102035.78;3580029;40;20449;-63
2022/10/04 02:04:34;;;;;;;16.73;10.25;;;;;;;11.95;82.83;102018.88;3584326;40;20126;-63
2022/10/04 02:07:10;;;;;;;17.45;10.40;;;;;;;11.98;83.71;102033.09;3578395;40;20064;-64
2022/10/04 02:09:43;;;;;;;23.55;10.80;;;;;;;11.92;83.35;102019.03;3582199;40;20062;-63
2022/10/04 02:12:15;;;;;;;15.25;10.88;;;;;;;11.37;82.94;101925.56;3576440;40;20059;-63
2022/10/04 02:14:54;;;;;;;17.17;9.93;;;;;;;11.92;83.02;102013.66;3576109;40;20387;-63
2022/10/04 02:17:32;;;;;;;18.85;10.25;;;;;;;11.89;82.55;102011.09;3578850;40;20375;-64
2022/10/04 02:20:01;;;;;;;16.27;9.45;;;;;;;11.84;83.16;102001.44;3582649;40;20052;-63
2022/10/04 02:22:29;;;;;;;14.60;10.15;;;;;;;11.83;82.27;101999.66;3579918;40;20415;-63
2022/10/04 02:24:56;;;;;;;14.35;10.10;;;;;;;11.68;82.23;101978.84;3578390;40;20066;-63
2022/10/04 02:27:30;;;;;;;19.38;10.60;;;;;;;11.75;82.46;101995.56;3578306;40;20318;-63
2022/10/04 02:30:10;;;;;;;13.98;10.05;;;;;;;11.13;83.32;101895.28;3574112;40;20048;-63
2022/10/04 02:32:59;;;;;;;16.00;10.48;;;;;;;11.64;82.81;101974.56;3579497;40;20110;-63
2022/10/04 02:35:43;;;;;;;16.15;10.25;;;;;;;11.67;82.77;101979.78;3573825;40;20048;-63
2022/10/04 02:38:21;;;;;;;14.70;10.55;;;;;;;11.63;83.54;101973.66;3573610;40;20045;-63
2022/10/04 02:41:13;;;;;;;14.63;10.32;;;;;;;11.64;83.79;101963.78;3574424;40;20045;-63
2022/10/04 02:43:55;;;;;;;16.70;10.80;;;;;;;11.35;83.70;101920.28;3577734;40;20053;-63
2022/10/04 02:46:33;;;;;;;15.88;11.32;;;;;;;11.62;83.70;101966.53;3579019;40;20060;-63
2022/10/04 02:49:09;;;;;;;14.73;10.65;;;;;;;11.59;83.84;101957.72;3577339;40;20087;-63
2022/10/04 02:51:58;;;;;;;17.02;11.88;;;;;;;10.77;83.80;101807.31;3577807;40;20373;-63
2022/10/04 02:54:39;;;;;;;19.00;11.68;;;;;;;11.55;83.51;101940.84;3577925;40;20058;-63
2022/10/04 02:57:16;;;;;;;16.77;11.95;;;;;;;11.54;83.92;101933.69;3577887;40;20045;-63
2022/10/04 02:59:42;;;;;;;19.73;11.73;;;;;;;11.54;84.11;101928.31;3579829;40;20059;-63
2022/10/04 03:02:30;;;;;;;15.57;11.38;;;;;;;11.52;83.60;101929.34;3578136;40;20065;-63
2022/10/04 03:05:05;;;;;;;16.70;12.27;;;;;;;11.52;83.77;101927.53;3577776;40;20422;-63
2022/10/04 03:07:35;;;;;;;18.17;12.63;;;;;;;11.49;83.94;101919.59;3581392;40;20277;-63
2022/10/04 03:10:09;;;;;;;19.45;12.55;;;;;;;11.44;83.72;101910.00;3579702;40;20082;-63
2022/10/04 03:12:37;;;;;;;22.52;13.40;;;;;;;11.48;83.42;101914.28;3579681;40;20256;-63
2022/10/04 03:15:11;;;;;;;19.05;12.77;;;;;;;11.36;83.70;101900.47;3581493;40;20088;-63
2022/10/04 03:17:41;;;;;;;22.13;12.13;;;;;;;11.46;84.32;101913.50;3580912;40;20052;-63
2022/10/04 03:20:14;;;;;;;18.92;12.40;;;;;;;11.44;83.79;101924.31;3578709;40;20056;-63
2022/10/04 03:22:45;;;;;;;19.23;11.75;;;;;;;11.42;83.52;101922.66;3585574;40;20362;-62
2022/10/04 03:25:20;;;;;;;19.58;12.38;;;;;;;11.37;83.23;101910.28;3578616;40;20137;-63
2022/10/04 03:27:50;;;;;;;19.48;12.18;;;;;;;11.01;83.53;101847.47;3581396;40;20295;-63
2022/10/04 03:30:20;;;;;;;16.08;11.98;;;;;;;11.36;83.74;101905.00;3579523;40;20059;-63
2022/10/04 03:32:49;;;;;;;20.02;12.07;;;;;;;10.57;83.23;101773.28;3576286;40;20404;-63
2022/10/04 03:35:39;;;;;;;22.08;11.82;;;;;;;11.21;83.03;101886.88;3579453;40;20056;-63
2022/10/04 03:38:11;;;;;;;19.30;11.52;;;;;;;11.31;83.38;101899.81;3580359;40;20052;-63
2022/10/04 03:40:51;;;;;;;19.83;12.73;;;;;;;10.88;83.02;101834.59;3577922;40;20410;-63
2022/10/04 03:43:21;;;;;;;18.08;11.40;;;;;;;11.28;83.44;101891.88;3578525;40;20402;-63
2022/10/04 03:45:48;;;;;;;20.58;12.32;;;;;;;11.27;82.87;101891.97;3578346;40;20060;-63
2022/10/04 03:48:30;;;;;;;23.42;12.45;;;;;;;11.17;82.83;101886.16;3578603;40;20056;-63
2022/10/04 03:50:58;;;;;;;20.60;11.73;;;;;;;11.18;83.08;101893.25;3581973;40;20063;-62
2022/10/04 03:53:31;;;;;;;20.48;11.57;;;;;;;11.16;83.15;101889.75;3579446;40;20056;-63
2022/10/04 03:55:59;;;;;;;17.42;10.90;;;;;;;11.13;83.52;101879.16;3579968;40;20133;-63
2022/10/04 03:58:29;;;;;;;14.43;11.00;;;;;;;11.13;83.84;101876.44;3577026;40;20077;-63
2022/10/04 04:01:03;;;;;;;17.98;11.05;;;;;;;10.97;83.57;101851.22;3581803;40;20374;-63
2022/10/04 04:03:45;;;;;;;18.60;11.43;;;;;;;11.00;83.03;101856.47;3581207;40;20057;-63
2022/10/04 04:06:17;;;;;;;16.52;10.57;;;;;;;11.10;83.26;101881.97;3575638;40;20174;-63
2022/10/04 04:08:51;;;;;;;18.85;11.35;;;;;;;11.08;83.13;101883.88;3580547;40;20084;-63
2022/10/04 04:11:25;;;;;;;16.88;10.60;;;;;;;10.37;83.28;101757.19;3577763;40;20060;-63
2022/10/04 04:14:14;;;;;;;18.98;11.07;;;;;;;11.04;83.46;101880.47;3579491;40;20059;-62
2022/10/04 04:16:40;;;;;;;16.00;10.90;;;;;;;11.05;83.38;101879.53;3575763;40;20056;-63
2022/10/04 04:19:17;;;;;;;15.55;11.02;;;;;;;11.04;82.87;101869.72;3581980;40;20384;-63
2022/10/04 04:21:44;;;;;;;18.80;10.98;;;;;;;11.01;83.41;101874.38;3582004;40;20053;-63
2022/10/04 04:24:31;;;;;;;19.20;10.93;;;;;;;11.05;82.81;101876.81;3579946;40;20391;-63
2022/10/04 04:27:04;;;;;;;13.27;10.43;;;;;;;10.44;82.70;101772.13;3577583;40;20126;-63
2022/10/04 04:29:46;;;;;;;15.20;10.15;;;;;;;11.03;83.23;101883.22;3578469;40;20060;-63
2022/10/04 04:32:40;;;;;;;16.98;10.85;;;;;;;10.47;83.25;101795.31;3577650;40;20060;-62
2022/10/04 04:35:21;;;;;;;;;;;;;;;10.97;83.50;101880.81;3577043;40;20378;-62
2022/10/04 04:38:11;;;;;;;16.70;10.45;;;;;;;10.91;83.14;101874.78;3581410;40;19947;-65
2022/10/04 04:40:37;;;;;;;16.02;10.13;;;;;;;10.96;83.32;101890.72;3580612;40;20055;-62
2022/10/04 04:43:03;;;;;;;23.23;11.10;;;;;;;10.95;82.64;101885.41;3579065;39;20064;-62
2022/10/04 04:45:32;;;;;;;16.30;10.50;;;;;;;10.85;83.07;101864.31;3573164;40;20285;-62
2022/10/04 04:48:00;;;;;;;20.23;11.07;;;;;;;10.91;83.50;101872.09;3579790;39;20050;-63
2022/10/04 04:50:40;;;;;;;16.95;11.32;;;;;;;10.89;83.22;101863.22;3587348;39;20504;-63
2022/10/04 04:53:22;;;;;;;17.65;11.10;;;;;;;10.89;83.39;101860.53;3578733;40;20075;-62
2022/10/04 04:55:58;;;;;;;18.75;10.50;;;;;;;10.92;82.83;101859.53;3578558;40;20061;-63
2022/10/04 04:58:32;;;;;;;15.30;10.45;;;;;;;10.80;82.88;101834.06;3576658;40;20071;-62
2022/10/04 05:01:05;;;;;;;17.75;10.88;;;;;;;10.92;83.44;101843.38;3579527;40;20052;-62
2022/10/04 05:03:32;;;;;;;15.38;9.75;;;;;;;10.60;83.27;101788.41;3577872;40;20133;-62
2022/10/04 05:06:01;;;;;;;16.10;10.77;;;;;;;10.96;83.29;101853.03;3580554;40;20059;-62
2022/10/04 05:08:33;;;;;;;13.90;10.25;;;;;;;10.82;82.89;101832.19;3579145;40;20063;-62
2022/10/04 05:11:16;;;;;;;17.55;10.00;;;;;;;10.92;82.88;101852.31;3578812;40;20386;-62
2022/10/04 05:13:52;;;;;;;14.10;9.75;;;;;;;10.97;82.67;101861.97;3584136;40;20115;-62
2022/10/04 05:16:30;;;;;;;12.27;8.80;;;;;;;10.97;82.33;101859.28;3577658;40;20484;-62
2022/10/04 05:19:16;;;;;;;13.93;9.38;;;;;;;10.95;81.68;101858.50;3581395;40;20130;-62
2022/10/04 05:21:46;;;;;;;15.40;8.70;;;;;;;10.92;81.83;101862.22;3578346;40;20126;-62
2022/10/04 05:24:33;;;;;;;14.65;8.82;;;;;;;10.88;82.15;101858.78;3578328;40;20064;-62
2022/10/04 05:27:16;;;;;;;14.65;8.77;;;;;;;10.87;82.21;101859.72;3577199;40;20053;-62
2022/10/04 05:30:18;;;;;;;12.40;9.50;;;;;;;10.84;81.89;101857.16;3581167;40;20129;-62
2022/10/04 05:33:02;;;;;;;12.18;8.38;;;;;;;10.81;82.33;101857.31;3585127;39;20064;-62
2022/10/04 05:35:42;;;;;;;12.90;7.88;;;;;;;9.94;82.00;101717.00;3578076;40;20071;-62
2022/10/04 05:39:17;;;;;;;13.43;7.63;;;;;;;10.74;82.26;101861.22;3578827;40;20052;-62
2022/10/04 05:42:22;;;;;;;14.13;8.20;;;;;;;10.68;81.88;101850.75;3569733;40;20076;-62
2022/10/04 05:44:56;;;;;;;11.15;7.30;;;;;;;10.68;81.80;101864.19;3572531;40;20102;-62
2022/10/04 05:47:29;;;;;;;11.50;7.50;;;;;;;10.66;81.96;101863.41;3576288;40;20062;-63
2022/10/04 05:49:59;;;;;;;11.38;7.15;;;;;;;10.67;82.79;101859.78;3581386;40;20130;-64
2022/10/04 05:52:37;;;;;;;15.45;7.43;;;;;;;10.67;81.96;101870.53;3580909;40;20092;-62
2022/10/04 05:55:31;;;;;;;15.10;7.60;;;;;;;10.44;82.40;101825.88;3578468;40;20056;-61
2022/10/04 05:58:21;;;;;;;11.02;7.43;;;;;;;10.67;82.23;101879.47;3581915;40;20680;-62
2022/10/04 06:01:31;;;;;;;10.10;7.20;;;;;;;10.68;82.55;101872.28;3580349;40;20167;-62
2022/10/04 06:04:34;;;;;;;9.35;7.18;;;;;;;10.67;81.71;101881.28;3576717;40;20387;-62
2022/10/04 06:07:42;;;;;;;10.65;6.70;;;;;;;10.69;81.99;101884.78;3577452;40;20308;-62
2022/10/04 06:10:47;;;;;;;13.82;7.55;;;;;;;10.68;82.46;101877.66;3574667;40;20118;-62
2022/10/04 06:13:40;;;;;;;;;;;;;;;10.69;82.67;101880.28;3577492;40;20416;-62
2022/10/04 06:16:52;;;;;;;11.05;6.78;;;;;;;10.72;82.21;101884.66;3578739;40;19936;-62
2022/10/04 06:19:59;;;;;;;10.10;6.72;;;;;;;10.80;82.08;101892.34;3576528;40;20059;-62
2022/10/04 06:22:25;;;;;;;11.57;6.85;;;;;;;10.86;82.36;101884.00;3569278;40;20049;-62
2022/10/04 06:25:11;;;;;;;10.98;6.28;;;;;;;10.91;81.45;101877.47;3579205;40;20052;-62
2022/10/04 06:27:52;;;;;;;14.35;9.88;;;;;;;10.99;82.27;101879.81;3580852;40;20068;-62
2022/10/04 06:30:19;;;;;;;12.07;6.68;;;;;;;11.04;81.92;101880.47;3580886;40;20420;-61
2022/10/04 06:33:36;;;;;;;10.90;6.65;;;;;;;11.08;81.66;101889.28;3589592;39;20118;-62
2022/10/04 06:36:20;;;;;;;13.77;6.45;;;;;;;11.11;80.56;101881.91;3558760;40;20092;-62
2022/10/04 06:39:35;;;;;;;14.27;6.18;;;;;;;11.11;80.21;101881.06;3579618;40;20057;-61
2022/10/04 06:42:44;;;;;;;12.68;5.97;;;;;;;11.15;80.87;101866.50;3583220;40;20335;-62
2022/10/04 06:45:58;;;;;;;10.77;5.93;;;;;;;11.18;81.20;101869.03;3584921;39;20063;-62
2022/10/04 06:48:43;;;;;;;11.02;6.45;;;;;;;11.19;81.12;101867.22;3577024;40;20138;-62
2022/10/04 06:52:04;;;;;;;11.68;6.43;;;;;;;11.27;80.27;101876.69;3578722;40;20053;-63
2022/10/04 06:54:42;;;;;;;10.55;6.50;;;;;;;11.27;80.49;101876.69;3574304;40;20057;-63
2022/10/04 06:57:51;;;;;;;12.82;5.88;;;;;;;11.26;79.87;101879.44;3579923;40;20060;-62
2022/10/04 07:00:25;;;;;;;9.13;5.35;;;;;;;11.27;79.60;101876.69;3580922;40;20056;-63
2022/10/04 07:03:03;;;;;;;8.57;5.18;;;;;;;11.27;80.11;101882.06;3579954;40;20334;-62
2022/10/04 07:05:51;;;;;;;10.85;5.85;;;;;;;11.25;79.47;101869.63;3579546;40;20113;-63
2022/10/04 07:08:58;;;;;;;8.68;4.97;;;;;;;11.18;79.66;101860.09;3580653;40;20056;-63
2022/10/04 07:11:49;;;;;;;9.40;5.75;;;;;;;11.19;80.11;101853.75;3577667;40;20057;-63
2022/10/04 07:14:29;;;;;;;9.02;5.85;;;;;;;11.15;79.43;101844.97;3582754;40;20059;-62
2022/10/04 07:17:07;;;;;;;9.40;5.85;;;;;;;11.36;80.44;101870.84;3580158;40;20053;-63
2022/10/04 07:19:40;;;;;;;9.55;5.53;;;;;;;11.34;79.72;101850.34;3578451;40;20318;-63
2022/10/04 07:22:05;;;;;;;11.07;5.63;;;;;;;11.63;80.36;101862.38;3580107;40;20284;-62
2022/10/04 07:24:55;;;;;;;12.77;7.13;;;;;;;11.82;79.44;101860.50;3581251;40;20083;-63
2022/10/04 07:27:42;;;;;;;12.35;5.90;;;;;;;12.03;78.65;101853.19;3576383;40;20124;-63
2022/10/04 07:30:17;;;;;;;9.38;5.15;;;;;;;11.93;77.41;101816.03;3582809;39;20048;-62
2022/10/04 07:32:50;;;;;;;10.13;5.68;;;;;;;12.46;76.29;101860.84;3579675;40;20048;-63
2022/10/04 07:35:46;;;;;;;11.18;6.20;;;;;;;12.58;75.96;101845.81;3580553;40;20041;-63
2022/10/04 07:38:12;;;;;;;9.50;5.38;;;;;;;12.89;75.52;101861.22;3578154;40;20068;-63
2022/10/04 07:41:02;;;;;;;10.32;5.68;;;;;;;13.13;74.43;101864.38;3580462;40;20468;-63
2022/10/04 07:43:44;;;;;;;8.18;5.18;;;;;;;13.36;73.15;101868.53;3579275;40;20055;-63
2022/10/04 07:46:42;;;;;;;10.38;5.32;;;;;;;13.61;72.35;101871.56;3577760;40;20350;-63
2022/10/04 07:49:18;;;;;;;9.20;5.50;;;;;;;13.81;72.02;101869.53;3576079;40;20055;-62
2022/10/04 07:52:17;;;;;;;9.32;5.28;;;;;;;14.01;70.65;101874.63;3578656;40;20106;-63
2022/10/04 07:54:58;;;;;;;6.45;4.55;;;;;;;14.11;69.84;101865.00;3579973;40;20055;-63
2022/10/04 07:57:51;;;;;;;9.57;4.47;;;;;;;14.28;70.02;101860.41;3587553;39;20443;-63
2022/10/04 08:00:34;;;;;;;7.20;4.63;;;;;;;14.48;69.11;101862.75;3586538;40;20092;-63
2022/10/04 08:03:08;;;;;;;9.43;5.30;;;;;;;14.66;68.62;101862.63;3579850;40;20072;-62
2022/10/04 08:05:44;;;;;;;8.40;4.38;;;;;;;14.68;67.88;101833.63;3585971;40;20071;-62
2022/10/04 08:08:18;;;;;;;9.55;4.70;;;;;;;14.91;68.08;101849.28;3578947;40;20057;-62
2022/10/04 08:11:32;;;;;;;8.10;4.28;;;;;;;15.15;68.28;101859.50;3583907;40;20061;-62
2022/10/04 08:14:35;;;;;;;18.48;10.75;;;;;;;15.30;66.25;101856.66;3579488;40;20092;-63
2022/10/04 08:17:40;;;;;;;11.90;5.35;;;;;;;15.37;65.13;101840.00;3577496;40;20045;-62
2022/10/04 08:20:35;;;;;;;8.35;4.95;;;;;;;15.53;64.30;101830.75;3587280;40;20052;-63
2022/10/04 08:23:40;;;;;;;6.15;4.55;;;;;;;15.72;63.73;101838.56;3582404;40;20057;-63
2022/10/04 08:26:44;;;;;;;9.65;4.38;;;;;;;16.13;63.86;101858.41;3582455;40;20063;-65
2022/10/04 08:29:57;;;;;;;9.52;4.50;;;;;;;16.26;61.96;101851.16;3577191;40;20056;-63
2022/10/04 08:33:05;;;;;;;7.13;4.07;;;;;;;16.49;61.39;101849.53;3581767;40;20399;-63
2022/10/04 08:35:37;;;;;;;8.32;4.40;;;;;;;16.56;61.46;101847.28;3577500;40;20098;-63
2022/10/04 08:38:45;;;;;;;9.10;4.53;;;;;;;16.39;61.31;101841.19;3579721;40;20384;-63
2022/10/04 08:41:29;;;;;;;7.50;4.43;;;;;;;16.45;60.51;101851.59;3579912;40;20081;-63
2022/10/04 08:44:13;;;;;;;;;;;;;;;16.50;59.97;101858.56;3583176;40;20048;-62
2022/10/04 08:47:53;;;;;;;14.10;5.95;;;;;;;16.77;60.58;101856.63;3579843;40;19940;-63
2022/10/04 08:51:15;;;;;;;12.00;5.72;;;;;;;17.05;60.57;101860.06;3580576;40;20055;-63
2022/10/04 08:54:02;;;;;;;9.27;4.50;;;;;;;17.39;59.69;101859.34;3545408;40;20085;-63
2022/10/04 08:56:56;;;;;;;6.68;4.53;;;;;;;17.53;57.48;101860.16;3545872;40;20118;-63
2022/10/04 09:00:04;;;;;;;;;;;;;;;17.46;57.05;101842.56;3579252;40;20061;-65
2022/10/04 09:03:25;;;;;;;9.52;4.88;;;;;;;17.75;57.72;101854.84;3582077;40;20322;-64
2022/10/04 09:06:18;;;;;;;8.20;5.40;;;;;;;17.92;56.28;101858.16;3579706;40;20059;-63
2022/10/04 09:09:17;;;;;;;7.03;5.17;;;;;;;18.02;55.94;101860.06;3586394;39;20083;-63
2022/10/04 09:12:21;;;;;;;7.43;5.38;;;;;;;18.21;55.96;101873.13;3574800;40;20273;-63
2022/10/04 09:15:43;;;;;;;9.57;5.15;;;;;;;18.44;55.13;101867.75;3580895;40;20055;-64
2022/10/04 09:18:12;;;;;;;9.43;5.32;;;;;;;18.56;55.50;101877.66;3562814;40;20056;-63
2022/10/04 09:21:12;;;;;;;9.68;5.57;;;;;;;18.72;53.44;101872.78;3578044;40;20085;-63
2022/10/04 09:24:18;;;;;;;14.75;7.85;;;;;;;18.94;53.69;101868.34;3575967;40;20089;-63
2022/10/04 09:27:00;;;;;;;8.77;5.10;;;;;;;19.04;52.72;101861.13;3584248;40;21254;-63
2022/10/04 09:29:41;;;;;;;11.15;4.70;;;;;;;19.11;52.98;101851.47;3580812;40;20080;-65
2022/10/04 09:33:04;;;;;;;9.73;4.70;;;;;;;19.18;52.95;101858.13;3579635;40;20133;-63
2022/10/04 09:36:15;;;;;;;9.27;4.43;;;;;;;19.24;51.98;101852.19;3563803;40;20116;-63
2022/10/04 09:39:25;;;;;;;6.93;4.38;;;;;;;19.37;52.54;101841.13;3578591;40;20764;-63
2022/10/04 09:42:20;;;;;;;9.18;4.28;;;;;;;19.61;51.20;101849.13;3578380;39;20421;-64
2022/10/04 09:45:24;;;;;;;12.90;4.10;;;;;;;19.78;51.11;101841.44;3579721;40;20051;-62
2022/10/04 09:48:35;;;;;;;8.45;4.03;;;;;;;19.61;50.92;101838.22;3580575;40;20052;-61
2022/10/04 09:51:22;;;;;;;7.30;4.18;;;;;;;19.73;51.51;101840.94;3583384;39;20098;-64
2022/10/04 09:54:21;;;;;;;7.22;4.00;;;;;;;19.74;50.59;101842.69;3580393;40;20052;-62
2022/10/04 09:57:12;;;;;;;8.40;4.05;;;;;;;19.92;50.98;101835.69;3580535;40;20487;-62
2022/10/04 10:00:22;;;;;;;9.73;5.70;;;;;;;19.99;50.83;101842.34;3580643;40;20084;-62
2022/10/04 10:03:32;;;;;;;9.27;4.07;;;;;;;20.00;50.75;101845.94;3583507;40;20055;-62
2022/10/04 10:06:24;;;;;;;11.50;4.50;;;;;;;20.09;50.23;101837.81;3579757;40;20045;-62
2022/10/04 10:09:12;;;;;;;6.93;4.20;;;;;;;20.27;50.26;101839.97;3582793;40;20060;-62
2022/10/04 10:15:23;;;;;;;8.48;4.22;;;;;;;20.39;50.15;101827.94;3577662;40;20423;-62
2022/10/04 10:18:39;;;;;;;8.98;3.75;;;;;;;20.52;49.33;101830.50;3575886;40;20049;-62
2022/10/04 10:21:23;;;;;;;7.95;3.95;;;;;;;20.54;49.79;101832.09;3579409;40;20080;-62
2022/10/04 10:24:20;;;;;;;6.75;3.65;;;;;;;20.54;49.53;101815.72;3574969;40;20084;-62
2022/10/04 10:27:22;;;;;;;9.77;4.10;;;;;;;20.74;49.90;101808.50;3580212;40;20264;-62
2022/10/04 10:30:05;;;;;;;9.73;4.07;;;;;;;20.91;48.30;101812.44;3576582;40;20130;-63
2022/10/04 10:33:04;;;;;;;10.15;4.03;;;;;;;21.07;47.78;101807.31;3576947;40;20712;-62
2022/10/04 10:36:03;;;;;;;5.32;2.88;;;;;;;21.23;46.46;101801.31;3573652;40;20110;-62
2022/10/04 10:39:08;;;;;;;7.90;3.03;;;;;;;21.49;46.94;101812.59;3577981;40;20056;-62
2022/10/04 10:42:29;;;;;;;6.13;3.40;;;;;;;21.53;47.29;101816.81;3576455;40;20135;-62
2022/10/04 10:45:45;;;;;;;6.72;3.40;;;;;;;21.86;46.72;101819.28;3578173;39;20088;-62
2022/10/04 10:49:01;;;;;;;7.30;3.58;;;;;;;22.05;45.41;101823.88;3573220;40;20074;-62
2022/10/04 10:52:12;;;;;;;5.72;3.10;;;;;;;22.16;45.66;101810.91;3571819;40;20049;-61
2022/10/04 10:55:18;;;;;;;8.77;3.17;;;;;;;22.29;44.53;101826.16;3567180;40;21346;-62
2022/10/04 10:58:32;;;;;;;6.97;3.90;;;;;;;22.22;45.98;101832.22;3577964;40;20062;-62
2022/10/04 11:01:46;;;;;;;10.27;3.80;;;;;;;21.97;45.18;101830.91;3572631;40;20326;-62
2022/10/04 11:04:26;;;;;;;11.03;5.47;;;;;;;21.15;45.84;101710.88;3575091;40;20048;-62
2022/10/04 11:07:26;;;;;;;9.80;3.60;;;;;;;21.96;45.95;101811.91;3577537;40;20620;-62
2022/10/04 11:10:21;;;;;;;8.98;3.55;;;;;;;22.16;45.61;101810.91;3578823;40;20060;-62
2022/10/04 11:13:32;;;;;;;6.07;3.55;;;;;;;22.36;45.72;101800.78;3578568;40;20048;-62
2022/10/04 11:16:33;;;;;;;7.75;3.70;;;;;;;22.69;44.50;101791.16;3578599;40;20048;-62
2022/10/04 11:19:28;;;;;;;7.90;3.97;;;;;;;22.80;43.73;101781.84;3580362;40;20060;-62
2022/10/04 11:22:11;;;;;;;8.30;3.63;;;;;;;23.06;44.75;101794.91;3576572;40;20379;-63
2022/10/04 11:25:33;;;;;;;6.97;3.05;;;;;;;23.29;42.33;101792.59;3578638;40;20061;-63
2022/10/04 11:28:23;;;;;;;4.35;2.70;;;;;;;23.35;40.78;101776.38;3583533;39;20134;-62
2022/10/04 11:31:44;;;;;;;4.60;2.22;;;;;;;23.60;43.07;101784.88;3577646;40;20048;-62
2022/10/04 11:34:46;;;;;;;6.38;2.67;;;;;;;23.67;42.45;101777.72;3577366;40;20062;-62
2022/10/04 11:37:40;;;;;;;4.55;2.75;;;;;;;23.89;40.63;101778.31;3573782;40;20159;-63
2022/10/04 11:40:20;;;;;;;6.95;3.05;;;;;;;23.94;40.74;101786.91;3578276;40;20052;-62
2022/10/04 11:43:18;;;;;;;6.82;2.90;;;;;;;23.83;41.09;101775.16;3580479;39;20040;-63
2022/10/04 11:46:42;;;;;;;8.40;3.00;;;;;;;23.71;40.98;101770.91;3579902;40;20048;-62
2022/10/04 11:49:39;;;;;;;5.72;2.70;;;;;;;23.81;41.91;101771.69;3570926;40;20155;-62
2022/10/04 11:52:18;;;;;;;8.80;3.10;;;;;;;23.92;43.48;101761.50;3569454;40;20097;-62
2022/10/04 11:55:24;;;;;;;5.05;2.95;;;;;;;23.98;40.53;101750.75;3576977;40;20044;-62
2022/10/04 11:58:00;;;;;;;5.68;2.45;;;;;;;23.89;40.29;101740.72;3579650;40;20136;-62
2022/10/04 12:01:09;;;;;;;3.38;2.33;;;;;;;23.66;42.05;101753.16;3578669;40;20055;-62
2022/10/04 12:04:16;;;;;;;4.50;2.60;;;;;;;23.33;40.96;101750.97;3577610;40;20072;-62
2022/10/04 12:06:57;;;;;;;5.65;2.58;;;;;;;23.13;41.99;101760.38;3579515;40;20060;-63
2022/10/04 12:10:18;;;;;;;5.43;2.33;;;;;;;22.75;41.65;101756.78;3579871;40;20068;-62
2022/10/04 12:13:20;;;;;;;6.22;2.65;;;;;;;22.43;42.62;101752.59;3582939;40;20044;-62
2022/10/04 12:15:56;;;;;;;5.43;2.92;;;;;;;22.08;43.42;101763.34;3580283;40;20098;-64
2022/10/04 12:19:01;;;;;;;4.82;2.20;;;;;;;22.75;43.34;101751.31;3587873;39;20058;-67
2022/10/04 12:22:00;;;;;;;5.18;2.33;;;;;;;22.96;42.08;101753.81;3586956;40;20061;-63
2022/10/04 12:25:08;;;;;;;5.60;2.60;;;;;;;22.03;41.92;101588.53;3583064;40;20057;-63
2022/10/04 12:27:58;;;;;;;3.80;2.63;;;;;;;23.06;42.55;101745.56;3590370;40;20071;-63
2022/10/04 12:30:49;;;;;;;3.80;2.30;;;;;;;23.29;42.10;101740.47;3580685;40;20067;-64
2022/10/04 12:33:37;;;;;;;5.78;2.50;;;;;;;23.45;41.83;101737.88;3581531;40;20040;-62
2022/10/04 12:36:29;;;;;;;5.97;2.45;;;;;;;23.91;39.83;101738.66;3579046;40;20054;-62
2022/10/04 12:39:21;;;;;;;6.20;2.65;;;;;;;24.23;40.73;101723.41;3581199;40;20068;-63
2022/10/04 12:42:12;;;;;;;5.78;2.38;;;;;;;24.65;39.24;101726.25;3579360;40;20064;-62
2022/10/04 12:45:08;;;;;;;4.53;3.00;;;;;;;24.86;38.33;101714.81;3581154;40;20071;-63
2022/10/04 12:48:11;;;;;;;3.03;2.08;;;;;;;24.91;36.42;101717.06;3577853;40;20052;-62
2022/10/04 12:50:39;;;;;;;5.13;2.50;;;;;;;25.04;36.79;101714.69;3580699;40;20052;-63
2022/10/04 12:53:42;;;;;;;6.93;2.30;;;;;;;25.45;36.24;101709.28;3580116;40;20069;-63
2022/10/04 12:56:28;;;;;;;6.93;2.58;;;;;;;25.71;36.13;101712.72;3582856;40;20049;-62